createdAt,value
2018-08-03T00:00:17.469Z,15.03
2018-08-03T00:02:45.842Z,12.80
2018-08-03T00:05:14.202Z,13.83
2018-08-03T00:07:42.548Z,13.60
2018-08-03T00:10:10.926Z,12.43
2018-08-03T00:12:39.258Z,11.93
2018-08-03T00:15:08.166Z,14.60
2018-08-03T00:17:36.492Z,15.07
2018-08-03T00:20:05.906Z,14.73
2018-08-03T00:22:34.513Z,13.57
2018-08-03T00:25:03.089Z,13.90
2018-08-03T00:27:31.369Z,14.80
2018-08-03T00:29:59.709Z,14.53
2018-08-03T00:32:28.025Z,13.43
2018-08-03T00:34:56.317Z,13.67
2018-08-03T00:37:24.594Z,14.27
2018-08-03T00:39:52.944Z,15.03
2018-08-03T00:42:21.277Z,15.03
2018-08-03T00:44:49.388Z,16.20
2018-08-03T00:47:17.716Z,14.33
2018-08-03T00:49:46.143Z,12.90
2018-08-03T00:52:14.558Z,13.47
2018-08-03T00:54:42.863Z,13.37
2018-08-03T00:57:10.861Z,14.50
2018-08-03T00:59:39.197Z,13.33
2018-08-03T01:02:07.561Z,15.40
2018-08-03T01:04:35.941Z,14.40
2018-08-03T01:07:04.317Z,14.37
2018-08-03T01:09:32.686Z,13.37
2018-08-03T01:12:01.025Z,13.17
2018-08-03T01:14:29.389Z,13.07
2018-08-03T01:16:57.717Z,14.30
2018-08-03T01:19:26.077Z,14.73
2018-08-03T01:21:54.416Z,14.83
2018-08-03T01:24:22.428Z,15.20
2018-08-03T01:26:50.757Z,16.47
2018-08-03T01:29:19.055Z,13.93
2018-08-03T01:31:47.404Z,15.97
2018-08-03T01:34:15.672Z,15.57
2018-08-03T01:36:44.053Z,15.07
2018-08-03T01:39:12.355Z,14.57
2018-08-03T01:41:40.449Z,15.17
2018-08-03T01:44:08.909Z,16.10
2018-08-03T01:46:37.467Z,16.57
2018-08-03T01:49:05.902Z,16.17
2018-08-03T01:51:34.241Z,15.77
2018-08-03T01:54:02.494Z,14.40
2018-08-03T01:56:30.826Z,14.17
2018-08-03T01:58:59.178Z,14.37
2018-08-03T02:01:27.405Z,13.47
2018-08-03T02:03:55.655Z,13.17
2018-08-03T02:06:23.989Z,15.83
2018-08-03T02:08:52.343Z,14.97
2018-08-03T02:11:20.729Z,15.60
2018-08-03T02:13:49.103Z,16.37
2018-08-03T02:16:17.493Z,14.87
2018-08-03T02:18:45.822Z,16.63
2018-08-03T02:21:14.125Z,16.27
2018-08-03T02:23:42.371Z,13.53
2018-08-03T02:26:10.690Z,15.03
2018-08-03T02:28:39.007Z,13.70
2018-08-03T02:31:07.029Z,14.80
2018-08-03T02:33:35.287Z,15.60
2018-08-03T02:36:03.599Z,13.83
2018-08-03T02:38:31.886Z,13.80
2018-08-03T02:41:00.270Z,12.80
2018-08-03T02:43:28.584Z,12.33
2018-08-03T02:45:56.887Z,12.80
2018-08-03T02:48:25.215Z,14.40
2018-08-03T02:50:53.621Z,15.30
2018-08-03T02:53:21.982Z,15.13
2018-08-03T02:55:50.066Z,13.70
2018-08-03T02:58:18.302Z,13.23
2018-08-03T03:00:46.578Z,15.00
2018-08-03T03:03:14.934Z,15.33
2018-08-03T03:05:43.272Z,15.20
2018-08-03T03:08:11.616Z,15.37
2018-08-03T03:10:39.931Z,15.47
2018-08-03T03:13:08.242Z,14.47
2018-08-03T03:15:36.706Z,14.80
2018-08-03T03:18:05.166Z,13.23
2018-08-03T03:20:33.800Z,14.07
2018-08-03T03:23:02.166Z,13.37
2018-08-03T03:25:30.478Z,14.63
2018-08-03T03:27:58.767Z,14.90
2018-08-03T03:30:26.790Z,14.77
2018-08-03T03:32:55.111Z,15.40
2018-08-03T03:35:23.422Z,15.47
2018-08-03T03:37:51.719Z,15.77
2018-08-03T03:40:20.076Z,15.17
2018-08-03T03:42:48.370Z,14.27
2018-08-03T03:45:16.846Z,14.60
2018-08-03T03:47:45.152Z,14.03
2018-08-03T03:50:13.446Z,15.77
2018-08-03T03:52:41.690Z,15.73
2018-08-03T03:55:10.002Z,16.07
2018-08-03T03:57:38.329Z,16.03
2018-08-03T04:00:07.547Z,15.60
2018-08-03T04:02:36.006Z,16.03
2018-08-03T04:05:04.658Z,14.10
2018-08-03T04:07:32.967Z,14.17
2018-08-03T04:10:01.267Z,13.90
2018-08-03T04:12:29.574Z,15.10
2018-08-03T04:14:58.021Z,15.97
2018-08-03T04:17:26.430Z,14.33
2018-08-03T04:19:54.814Z,15.03
2018-08-03T04:22:23.195Z,14.77
2018-08-03T04:24:51.539Z,13.43
2018-08-03T04:27:19.866Z,12.60
2018-08-03T04:32:22.666Z,13.17
2018-08-03T04:34:50.580Z,17.83
2018-08-03T04:37:18.810Z,13.27
2018-08-03T04:39:46.732Z,25.13
2018-08-03T04:42:14.962Z,18.63
2018-08-03T04:44:42.888Z,19.43
2018-08-03T04:47:11.089Z,16.33
2018-08-03T04:49:39.242Z,17.03
2018-08-03T04:52:07.489Z,15.07
2018-08-03T04:54:35.653Z,14.90
2018-08-03T04:57:03.822Z,17.10
2018-08-03T04:59:31.995Z,15.93
2018-08-03T05:02:00.158Z,15.57
2018-08-03T05:04:28.334Z,16.07
2018-08-03T05:06:56.517Z,17.10
2018-08-03T05:09:24.681Z,14.60
2018-08-03T05:11:52.950Z,14.47
2018-08-03T05:14:20.899Z,13.87
2018-08-03T05:16:49.053Z,13.50
2018-08-03T05:19:17.225Z,13.83
2018-08-03T05:21:45.401Z,13.50
2018-08-03T05:24:13.591Z,14.17
2018-08-03T05:26:41.747Z,14.40
2018-08-03T05:29:09.941Z,14.47
2018-08-03T05:31:38.142Z,13.80
2018-08-03T05:34:06.422Z,14.33
2018-08-03T05:36:34.597Z,14.13
2018-08-03T05:39:03.167Z,13.33
2018-08-03T05:41:31.434Z,13.47
2018-08-03T05:43:59.431Z,13.27
2018-08-03T05:46:27.769Z,13.77
2018-08-03T05:48:56.172Z,12.37
2018-08-03T05:51:24.233Z,13.13
2018-08-03T05:53:52.258Z,12.43
2018-08-03T05:56:20.584Z,12.97
2018-08-03T05:58:48.878Z,12.33
2018-08-03T06:01:17.214Z,12.23
2018-08-03T06:03:45.551Z,10.70
2018-08-03T06:06:13.911Z,10.90
2018-08-03T06:08:42.238Z,10.97
2018-08-03T06:11:10.636Z,10.70
2018-08-03T06:13:38.948Z,12.20
2018-08-03T06:16:07.250Z,11.57
2018-08-03T06:18:35.627Z,14.83
2018-08-03T06:21:03.916Z,12.83
2018-08-03T06:23:32.272Z,10.47
2018-08-03T06:26:00.599Z,10.80
2018-08-03T06:28:29.023Z,12.97
2018-08-03T06:30:57.376Z,12.30
2018-08-03T06:33:25.751Z,12.00
2018-08-03T06:35:53.923Z,12.33
2018-08-03T06:38:22.022Z,11.60
2018-08-03T06:40:50.329Z,11.60
2018-08-03T06:43:18.690Z,12.40
2018-08-03T06:45:46.979Z,11.73
2018-08-03T06:48:15.258Z,15.07
2018-08-03T06:50:43.613Z,10.83
2018-08-03T06:53:11.952Z,12.40
2018-08-03T06:55:40.187Z,11.67
2018-08-03T06:58:08.570Z,11.33
2018-08-03T07:00:36.887Z,11.10
2018-08-03T07:03:05.310Z,12.43
2018-08-03T07:05:34.551Z,11.50
2018-08-03T07:08:02.863Z,11.20
2018-08-03T07:10:30.923Z,11.17
2018-08-03T07:12:59.231Z,10.70
2018-08-03T07:15:27.679Z,10.77
2018-08-03T07:17:56.063Z,10.33
2018-08-03T07:20:24.462Z,10.80
2018-08-03T07:22:53.165Z,10.77
2018-08-03T07:25:21.435Z,10.27
2018-08-03T07:27:49.822Z,9.53
2018-08-03T07:30:18.233Z,9.63
2018-08-03T07:32:46.616Z,10.47
2018-08-03T07:35:14.981Z,9.60
2018-08-03T07:37:43.380Z,9.53
2018-08-03T07:40:11.822Z,9.93
2018-08-03T07:42:40.190Z,10.40
2018-08-03T07:45:08.602Z,10.00
2018-08-03T07:47:36.954Z,10.77
2018-08-03T07:50:05.497Z,10.47
2018-08-03T07:52:33.651Z,10.13
2018-08-03T07:55:02.026Z,10.13
2018-08-03T07:57:30.364Z,9.73
2018-08-03T07:59:58.683Z,10.23
2018-08-03T08:02:27.050Z,9.83
2018-08-03T08:04:55.486Z,9.23
2018-08-03T08:07:23.835Z,9.40
2018-08-03T08:09:52.139Z,10.03
2018-08-03T08:12:20.427Z,9.70
2018-08-03T08:14:48.708Z,9.40
2018-08-03T08:17:17.044Z,10.03
2018-08-03T08:19:45.454Z,9.67
2018-08-03T08:22:13.818Z,9.80
2018-08-03T08:24:41.944Z,9.33
2018-08-03T08:27:10.341Z,9.43
2018-08-03T08:29:38.693Z,9.37
2018-08-03T08:32:07.072Z,9.60
2018-08-03T08:34:35.390Z,9.20
2018-08-03T08:37:03.572Z,10.00
2018-08-03T08:39:31.809Z,8.93
2018-08-03T08:42:00.137Z,9.03
2018-08-03T08:44:28.518Z,9.37
2018-08-03T08:46:56.843Z,9.07
2018-08-03T08:49:25.146Z,9.43
2018-08-03T08:51:53.487Z,9.80
2018-08-03T08:54:21.767Z,9.90
2018-08-03T08:56:50.043Z,9.63
2018-08-03T08:59:18.446Z,9.90
2018-08-03T09:01:46.808Z,9.83
2018-08-03T09:04:15.190Z,9.70
2018-08-03T09:06:43.553Z,10.77
2018-08-03T09:09:12.707Z,9.80
2018-08-03T09:11:40.728Z,10.43
2018-08-03T09:14:09.066Z,11.20
2018-08-03T09:16:37.405Z,9.63
2018-08-03T09:19:05.664Z,9.57
2018-08-03T09:21:33.959Z,9.30
2018-08-03T09:24:02.463Z,9.47
2018-08-03T09:26:30.494Z,9.43
2018-08-03T09:28:58.912Z,9.87
2018-08-03T09:31:27.374Z,9.07
2018-08-03T09:33:55.778Z,9.83
2018-08-03T09:36:23.892Z,9.10
2018-08-03T09:38:52.218Z,8.87
2018-08-03T09:41:20.514Z,9.10
2018-08-03T09:43:48.861Z,9.13
2018-08-03T09:46:17.221Z,9.23
2018-08-03T09:48:45.610Z,9.27
2018-08-03T09:51:13.930Z,9.30
2018-08-03T09:53:42.303Z,8.43
2018-08-03T09:56:10.654Z,8.33
2018-08-03T09:58:39.162Z,8.60
2018-08-03T10:01:10.449Z,7.87
2018-08-03T10:03:39.347Z,8.47
2018-08-03T10:06:07.887Z,8.60
2018-08-03T10:08:36.880Z,8.03
2018-08-03T10:11:05.218Z,8.23
2018-08-03T10:13:33.536Z,8.00
2018-08-03T10:16:01.819Z,7.90
2018-08-03T10:18:30.453Z,8.30
2018-08-03T10:20:58.771Z,8.10
2018-08-03T10:23:27.145Z,8.37
2018-08-03T10:25:55.130Z,8.40
2018-08-03T10:28:23.567Z,8.10
2018-08-03T10:30:51.838Z,8.07
2018-08-03T10:33:20.187Z,8.00
2018-08-03T10:35:48.523Z,7.43
2018-08-03T10:38:16.588Z,8.37
2018-08-03T10:40:44.934Z,7.67
2018-08-03T10:43:13.281Z,8.40
2018-08-03T10:45:41.588Z,6.70
2018-08-03T10:48:10.016Z,7.20
2018-08-03T10:50:38.337Z,6.47
2018-08-03T10:53:07.050Z,6.00
2018-08-03T10:55:35.241Z,6.40
2018-08-03T10:58:03.431Z,6.70
2018-08-03T11:00:32.322Z,7.00
2018-08-03T11:03:01.272Z,6.80
2018-08-03T11:05:30.086Z,6.70
2018-08-03T11:07:58.590Z,6.30
2018-08-03T11:10:26.893Z,6.47
2018-08-03T11:12:55.186Z,6.33
2018-08-03T11:15:23.499Z,6.30
2018-08-03T11:17:51.884Z,6.40
2018-08-03T11:20:20.247Z,6.50
2018-08-03T11:22:48.330Z,6.70
2018-08-03T11:25:16.635Z,6.73
2018-08-03T11:27:44.962Z,6.50
2018-08-03T11:30:13.059Z,7.07
2018-08-03T11:32:41.090Z,6.90
2018-08-03T11:35:09.993Z,7.10
2018-08-03T11:37:38.510Z,7.00
2018-08-03T11:40:08.024Z,7.03
2018-08-03T11:42:36.451Z,6.73
2018-08-03T11:45:06.353Z,7.30
2018-08-03T11:47:34.668Z,6.70
2018-08-03T11:50:03.258Z,6.57
2018-08-03T11:52:31.597Z,6.10
2018-08-03T11:54:59.906Z,7.73
2018-08-03T11:57:28.242Z,7.33
2018-08-03T11:59:56.540Z,6.17
2018-08-03T12:02:24.975Z,6.20
2018-08-03T12:04:53.343Z,6.10
2018-08-03T12:07:21.799Z,6.50
2018-08-03T12:09:50.138Z,6.47
2018-08-03T12:12:18.534Z,6.63
2018-08-03T12:14:46.890Z,6.30
2018-08-03T12:17:15.238Z,5.93
2018-08-03T12:19:43.295Z,6.53
2018-08-03T12:22:11.330Z,5.73
2018-08-03T12:24:39.691Z,5.90
2018-08-03T12:27:08.014Z,5.40
2018-08-03T12:29:36.346Z,5.90
2018-08-03T12:32:04.659Z,5.80
2018-08-03T12:34:33.002Z,5.60
2018-08-03T12:37:01.326Z,5.60
2018-08-03T12:39:29.582Z,5.90
2018-08-03T12:41:57.954Z,6.47
2018-08-03T12:44:26.326Z,5.60
2018-08-03T12:46:54.593Z,5.77
2018-08-03T12:49:22.894Z,5.90
2018-08-03T12:51:51.186Z,5.90
2018-08-03T12:54:19.471Z,5.60
2018-08-03T12:56:47.794Z,5.67
2018-08-03T12:59:16.093Z,5.73
2018-08-03T13:01:44.351Z,5.47
2018-08-03T13:04:12.704Z,7.57
2018-08-03T13:06:40.891Z,6.00
2018-08-03T13:09:09.167Z,6.20
2018-08-03T13:11:37.548Z,5.63
2018-08-03T13:14:05.894Z,5.87
2018-08-03T13:16:33.868Z,5.83
2018-08-03T13:19:02.213Z,5.50
2018-08-03T13:21:35.887Z,5.23
2018-08-03T13:24:04.682Z,5.40
2018-08-03T13:26:33.007Z,5.90
2018-08-03T13:29:01.125Z,6.03
2018-08-03T13:31:30.110Z,5.40
2018-08-03T13:33:58.450Z,5.60
2018-08-03T13:36:28.080Z,5.20
2018-08-03T13:38:56.441Z,5.53
2018-08-03T13:41:24.715Z,5.63
2018-08-03T13:43:52.718Z,5.20
2018-08-03T13:46:21.062Z,5.00
2018-08-03T13:48:49.730Z,5.40
2018-08-03T13:51:18.703Z,5.63
2018-08-03T13:53:47.630Z,5.40
2018-08-03T13:56:16.654Z,5.50
2018-08-03T13:58:45.747Z,5.97
2018-08-03T14:01:25.394Z,5.40
2018-08-03T14:03:53.726Z,5.53
2018-08-03T14:06:22.063Z,5.80
2018-08-03T14:08:50.490Z,5.87
2018-08-03T14:11:19.433Z,5.70
2018-08-03T14:13:48.000Z,5.50
2018-08-03T14:16:16.402Z,5.83
2018-08-03T14:18:45.932Z,5.67
2018-08-03T14:21:14.298Z,5.80
2018-08-03T14:23:42.682Z,5.87
2018-08-03T14:26:10.981Z,5.70
2018-08-03T14:28:39.360Z,6.77
2018-08-03T14:31:07.697Z,6.30
2018-08-03T14:33:36.011Z,5.77
2018-08-03T14:36:04.354Z,5.60
2018-08-03T14:38:32.714Z,6.40
2018-08-03T14:41:01.138Z,5.77
2018-08-03T14:43:29.519Z,5.90
2018-08-03T14:45:57.887Z,5.63
2018-08-03T14:48:26.239Z,6.30
2018-08-03T14:50:54.669Z,6.50
2018-08-03T14:53:23.031Z,6.30
2018-08-03T14:55:51.392Z,5.90
2018-08-03T14:58:19.738Z,6.23
2018-08-03T15:00:47.966Z,6.07
2018-08-03T15:03:17.070Z,5.53
2018-08-03T15:05:45.388Z,7.63
2018-08-03T15:08:13.691Z,6.73
2018-08-03T15:10:42.003Z,5.53
2018-08-03T15:13:10.319Z,6.80
2018-08-03T15:15:38.647Z,5.60
2018-08-03T15:18:07.350Z,5.53
2018-08-03T15:20:35.768Z,5.73
2018-08-03T15:23:04.023Z,5.30
2018-08-03T15:25:32.318Z,5.63
2018-08-03T15:28:00.607Z,5.67
2018-08-03T15:30:28.939Z,5.50
2018-08-03T15:32:57.300Z,5.93
2018-08-03T15:35:25.727Z,6.37
2018-08-03T15:37:54.052Z,5.73
2018-08-03T15:40:22.372Z,5.40
2018-08-03T15:42:50.371Z,5.70
2018-08-03T15:45:18.694Z,6.30
2018-08-03T15:47:47.040Z,5.80
2018-08-03T15:50:15.398Z,5.63
2018-08-03T15:52:43.770Z,5.80
2018-08-03T15:55:11.833Z,5.47
2018-08-03T15:57:40.115Z,6.07
2018-08-03T16:00:09.734Z,5.77
2018-08-03T16:02:38.143Z,5.90
2018-08-03T16:05:07.046Z,6.00
2018-08-03T16:07:35.316Z,6.53
2018-08-03T16:10:03.706Z,6.27
2018-08-03T16:12:31.986Z,6.20
2018-08-03T16:15:00.243Z,5.77
2018-08-03T16:17:28.522Z,5.87
2018-08-03T16:19:56.809Z,6.10
2018-08-03T16:22:25.084Z,5.73
2018-08-03T16:24:53.609Z,5.77
2018-08-03T16:27:21.616Z,5.77
2018-08-03T16:29:49.937Z,5.70
2018-08-03T16:32:18.298Z,5.53
2018-08-03T16:34:46.582Z,5.70
2018-08-03T16:37:14.952Z,6.03
2018-08-03T16:39:43.268Z,5.57
2018-08-03T16:42:11.273Z,5.03
2018-08-03T16:44:39.566Z,5.37
2018-08-03T16:47:07.825Z,5.30
2018-08-03T16:49:36.128Z,5.67
2018-08-03T16:52:04.488Z,6.37
2018-08-03T16:54:32.912Z,5.23
2018-08-03T16:57:01.331Z,6.90
2018-08-03T16:59:29.752Z,5.77
2018-08-03T17:01:58.074Z,5.70
2018-08-03T17:04:26.359Z,6.10
2018-08-03T17:06:54.662Z,5.60
2018-08-03T17:09:22.943Z,4.93
2018-08-03T17:11:51.193Z,5.50
2018-08-03T17:14:19.434Z,5.60
2018-08-03T17:16:47.699Z,5.53
2018-08-03T17:19:15.974Z,5.60
2018-08-03T17:21:44.279Z,5.90
2018-08-03T17:24:12.623Z,6.10
2018-08-03T17:26:40.998Z,5.90
2018-08-03T17:29:09.326Z,5.73
2018-08-03T17:31:37.709Z,5.43
2018-08-03T17:34:06.021Z,5.90
2018-08-03T17:36:34.343Z,6.17
2018-08-03T17:39:02.701Z,9.43
2018-08-03T17:41:30.967Z,6.83
2018-08-03T17:43:59.263Z,5.83
2018-08-03T17:46:27.551Z,5.77
2018-08-03T17:48:55.873Z,5.60
2018-08-03T17:51:24.159Z,6.50
2018-08-03T17:53:52.426Z,6.37
2018-08-03T17:56:20.926Z,5.10
2018-08-03T17:58:49.191Z,6.30
2018-08-03T18:01:17.492Z,5.80
2018-08-03T18:03:45.801Z,5.97
2018-08-03T18:06:14.101Z,6.27
2018-08-03T18:08:42.966Z,6.40
2018-08-03T18:11:11.306Z,6.70
2018-08-03T18:13:40.006Z,7.17
2018-08-03T18:16:09.845Z,6.10
2018-08-03T18:18:38.032Z,6.50
2018-08-03T18:21:06.214Z,5.63
2018-08-03T18:23:34.358Z,6.30
2018-08-03T18:26:02.514Z,5.97
2018-08-03T18:28:30.790Z,5.90
2018-08-03T18:30:59.030Z,5.90
2018-08-03T18:33:27.381Z,6.63
2018-08-03T18:35:55.650Z,7.70
2018-08-03T18:38:23.991Z,6.17
2018-08-03T18:40:52.339Z,6.87
2018-08-03T18:43:20.690Z,6.27
2018-08-03T18:45:48.954Z,7.07
2018-08-03T18:48:17.258Z,6.53
2018-08-03T18:50:45.522Z,6.70
2018-08-03T18:53:13.822Z,8.27
2018-08-03T18:55:42.107Z,21.43
2018-08-03T18:58:10.436Z,14.17
2018-08-03T19:00:38.855Z,12.77
2018-08-03T19:03:07.130Z,10.10
2018-08-03T19:05:35.454Z,7.80
2018-08-03T19:08:03.883Z,6.40
2018-08-03T19:10:32.190Z,6.80
2018-08-03T19:13:00.576Z,9.00
2018-08-03T19:15:28.847Z,8.03
2018-08-03T19:17:57.093Z,7.13
2018-08-03T19:20:25.438Z,7.90
2018-08-03T19:22:53.774Z,7.30
2018-08-03T19:25:22.114Z,8.70
2018-08-03T19:27:50.406Z,8.93
2018-08-03T19:30:19.600Z,8.77
2018-08-03T19:32:47.953Z,8.13
2018-08-03T19:35:16.404Z,9.97
2018-08-03T19:37:44.764Z,10.40
2018-08-03T19:40:12.990Z,10.57
2018-08-03T19:42:41.374Z,25.20
2018-08-03T19:45:09.800Z,14.23
2018-08-03T19:47:38.064Z,9.60
2018-08-03T19:50:07.683Z,11.87
2018-08-03T19:52:36.100Z,12.33
2018-08-03T19:55:04.518Z,17.93
2018-08-03T19:57:32.855Z,10.17
2018-08-03T20:00:00.861Z,15.07
2018-08-03T20:02:29.201Z,15.60
2018-08-03T20:04:57.522Z,10.60
2018-08-03T20:07:25.838Z,15.47
2018-08-03T20:09:54.203Z,14.90
2018-08-03T20:12:22.718Z,10.50
2018-08-03T20:14:51.032Z,14.47
2018-08-03T20:17:19.390Z,10.37
2018-08-03T20:19:47.820Z,24.60
2018-08-03T20:22:17.864Z,10.60
2018-08-03T20:24:46.363Z,36.57
2018-08-03T20:27:15.067Z,19.27
2018-08-03T20:29:43.683Z,14.87
2018-08-03T20:32:12.114Z,16.67
2018-08-03T20:34:40.422Z,12.00
2018-08-03T20:37:08.748Z,15.07
2018-08-03T20:39:37.095Z,19.77
2018-08-03T20:42:05.550Z,15.80
2018-08-03T20:44:33.841Z,20.33
2018-08-03T20:47:02.194Z,11.67
2018-08-03T20:49:30.483Z,9.80
2018-08-03T20:51:59.004Z,10.93
2018-08-03T20:54:27.291Z,12.60
2018-08-03T20:56:55.718Z,12.60
2018-08-03T20:59:24.018Z,12.87
2018-08-03T21:01:52.330Z,9.73
2018-08-03T21:04:20.723Z,11.77
2018-08-03T21:06:49.038Z,12.47
2018-08-03T21:09:17.333Z,13.07
2018-08-03T21:11:45.631Z,12.80
2018-08-03T21:14:13.999Z,11.97
2018-08-03T21:16:42.370Z,15.17
2018-08-03T21:19:10.752Z,14.13
2018-08-03T21:21:39.122Z,14.90
2018-08-03T21:24:07.507Z,11.13
2018-08-03T21:26:35.889Z,18.90
2018-08-03T21:29:04.367Z,13.33
2018-08-03T21:31:32.699Z,17.27
2018-08-03T21:34:01.063Z,11.53
2018-08-03T21:36:29.068Z,10.83
2018-08-03T21:38:57.370Z,12.07
2018-08-03T21:41:25.725Z,11.17
2018-08-03T21:43:54.037Z,9.77
2018-08-03T21:46:22.370Z,13.20
2018-08-03T21:48:50.679Z,13.40
2018-08-03T21:51:19.026Z,11.13
2018-08-03T21:53:47.355Z,12.87
2018-08-03T21:56:15.751Z,10.90
2018-08-03T21:58:44.089Z,11.27
2018-08-03T22:01:13.689Z,10.47
2018-08-03T22:03:42.473Z,11.17
2018-08-03T22:06:10.812Z,16.53
2018-08-03T22:08:39.446Z,10.27
2018-08-03T22:11:07.829Z,11.77
2018-08-03T22:13:36.692Z,10.77
2018-08-03T22:16:05.377Z,10.90
2018-08-03T22:18:33.759Z,11.67
2018-08-03T22:21:02.225Z,11.50
2018-08-03T22:23:30.566Z,11.53
2018-08-03T22:25:58.993Z,11.00
2018-08-03T22:28:27.304Z,11.60
2018-08-03T22:30:55.682Z,12.37
2018-08-03T22:33:24.079Z,11.10
2018-08-03T22:35:52.441Z,10.80
2018-08-03T22:38:20.805Z,11.20
2018-08-03T22:40:49.184Z,11.07
2018-08-03T22:43:17.515Z,11.30
2018-08-03T22:45:45.471Z,11.13
2018-08-03T22:48:13.826Z,10.53
2018-08-03T22:50:42.176Z,11.43
2018-08-03T22:53:10.510Z,11.23
2018-08-03T22:55:38.835Z,11.47
2018-08-03T22:58:07.184Z,10.80
2018-08-03T23:00:35.502Z,10.77
2018-08-03T23:03:03.789Z,11.63
2018-08-03T23:05:32.110Z,10.90
2018-08-03T23:08:00.691Z,11.10
2018-08-03T23:10:28.990Z,11.80
2018-08-03T23:12:57.362Z,11.93
2018-08-03T23:15:25.659Z,12.10
2018-08-03T23:17:53.970Z,12.00
2018-08-03T23:20:22.278Z,11.20
2018-08-03T23:22:50.276Z,11.03
2018-08-03T23:25:18.593Z,10.90
2018-08-03T23:27:46.894Z,11.20
2018-08-03T23:30:15.202Z,11.23
2018-08-03T23:32:43.500Z,10.83
2018-08-03T23:35:11.862Z,12.47
2018-08-03T23:37:40.138Z,11.30
2018-08-03T23:40:08.467Z,10.80
2018-08-03T23:42:36.907Z,10.90
2018-08-03T23:45:05.891Z,11.17
2018-08-03T23:47:34.362Z,11.37
2018-08-03T23:50:02.828Z,11.20
2018-08-03T23:52:30.855Z,10.40
2018-08-03T23:54:59.211Z,10.93
2018-08-03T23:57:27.677Z,12.07
2018-08-03T23:59:56.093Z,10.77
